createdAt,value
2018-10-05T00:02:18.198Z,74.37
2018-10-05T00:04:45.742Z,74.17
2018-10-05T00:07:13.327Z,74.61
2018-10-05T00:09:41.210Z,74.64
2018-10-05T00:12:08.762Z,74.21
2018-10-05T00:14:36.416Z,74.63
2018-10-05T00:17:03.993Z,74.87
2018-10-05T00:19:31.560Z,74.57
2018-10-05T00:22:00.033Z,74.31
2018-10-05T00:24:27.969Z,74.13
2018-10-05T00:26:55.501Z,74.28
2018-10-05T00:29:23.122Z,74.45
2018-10-05T00:31:51.165Z,73.79
2018-10-05T00:34:18.807Z,74.05
2018-10-05T00:36:46.366Z,74.26
2018-10-05T00:39:13.970Z,74.23
2018-10-05T00:41:42.010Z,74.32
2018-10-05T00:44:09.626Z,73.58
2018-10-05T00:46:37.222Z,73.74
2018-10-05T00:49:05.193Z,74.00
2018-10-05T00:51:32.757Z,74.10
2018-10-05T00:54:00.350Z,73.66
2018-10-05T00:56:27.945Z,74.23
2018-10-05T00:58:58.818Z,74.33
2018-10-05T01:01:26.366Z,74.20
2018-10-05T01:03:53.951Z,74.00
2018-10-05T01:06:21.532Z,74.67
2018-10-05T01:08:49.129Z,74.19
2018-10-05T01:11:17.588Z,74.72
2018-10-05T01:13:45.552Z,74.80
2018-10-05T01:16:13.721Z,74.63
2018-10-05T01:18:41.251Z,74.70
2018-10-05T01:21:09.089Z,74.59
2018-10-05T01:23:36.927Z,74.91
2018-10-05T01:26:04.519Z,74.92
2018-10-05T01:28:32.053Z,74.43
2018-10-05T01:30:59.950Z,75.36
2018-10-05T01:33:27.497Z,75.04
2018-10-05T01:35:55.013Z,75.06
2018-10-05T01:38:22.549Z,75.32
2018-10-05T01:40:50.608Z,75.26
2018-10-05T01:43:18.216Z,75.41
2018-10-05T01:45:45.770Z,75.19
2018-10-05T01:48:13.358Z,75.22
2018-10-05T01:50:40.938Z,74.79
2018-10-05T01:53:08.457Z,74.21
2018-10-05T01:55:36.022Z,75.00
2018-10-05T01:58:04.021Z,75.06
2018-10-05T02:00:31.553Z,74.67
2018-10-05T02:02:59.085Z,74.68
2018-10-05T02:05:26.647Z,74.93
2018-10-05T02:07:54.706Z,74.61
2018-10-05T02:10:22.320Z,74.58
2018-10-05T02:12:49.889Z,74.75
2018-10-05T02:15:17.425Z,74.61
2018-10-05T02:17:45.318Z,74.60
2018-10-05T02:20:12.891Z,74.59
2018-10-05T02:22:40.446Z,74.43
2018-10-05T02:25:08.293Z,74.76
2018-10-05T02:27:35.932Z,74.85
2018-10-05T02:30:03.466Z,74.30
2018-10-05T02:32:31.940Z,74.87
2018-10-05T02:34:59.956Z,75.30
2018-10-05T02:37:27.611Z,74.59
2018-10-05T02:39:55.170Z,75.01
2018-10-05T02:42:22.774Z,74.31
2018-10-05T02:44:50.829Z,74.99
2018-10-05T02:47:18.388Z,74.84
2018-10-05T02:49:45.978Z,74.48
2018-10-05T02:52:14.868Z,74.79
2018-10-05T02:54:42.496Z,75.26
2018-10-05T02:57:10.077Z,75.34
2018-10-05T02:59:37.644Z,74.90
2018-10-05T03:02:05.790Z,74.91
2018-10-05T03:04:36.686Z,74.71
2018-10-05T03:07:04.297Z,74.81
2018-10-05T03:09:32.370Z,74.74
2018-10-05T03:11:59.970Z,74.88
2018-10-05T03:14:27.498Z,74.36
2018-10-05T03:16:56.393Z,74.83
2018-10-05T03:19:25.163Z,74.63
2018-10-05T03:21:52.720Z,75.16
2018-10-05T03:24:20.557Z,74.55
2018-10-05T03:26:48.122Z,74.39
2018-10-05T03:29:15.721Z,74.83
2018-10-05T03:31:43.750Z,75.50
2018-10-05T03:34:11.305Z,74.63
2018-10-05T03:36:38.862Z,75.07
2018-10-05T03:39:06.721Z,75.59
2018-10-05T03:41:34.274Z,75.57
2018-10-05T03:44:01.822Z,75.51
2018-10-05T03:46:29.398Z,74.68
2018-10-05T03:48:57.461Z,75.20
2018-10-05T03:51:25.037Z,75.13
2018-10-05T03:53:53.238Z,75.63
2018-10-05T03:56:21.401Z,75.29
2018-10-05T03:58:50.279Z,74.71
2018-10-05T04:01:18.458Z,75.17
2018-10-05T04:03:46.095Z,75.39
2018-10-05T04:06:14.091Z,74.70
2018-10-05T04:08:41.631Z,75.33
2018-10-05T04:11:09.226Z,74.79
2018-10-05T04:13:37.462Z,74.46
2018-10-05T04:16:05.392Z,75.43
2018-10-05T04:18:36.485Z,75.73
2018-10-05T04:21:04.034Z,75.25
2018-10-05T04:23:32.029Z,75.74
2018-10-05T04:25:59.623Z,75.39
2018-10-05T04:28:27.195Z,75.49
2018-10-05T04:30:55.216Z,75.45
2018-10-05T04:33:22.783Z,75.37
2018-10-05T04:35:50.358Z,75.80
2018-10-05T04:38:18.775Z,75.42
2018-10-05T04:40:46.469Z,75.28
2018-10-05T04:43:14.080Z,75.12
2018-10-05T04:45:43.034Z,75.52
2018-10-05T04:48:12.222Z,75.37
2018-10-05T04:50:39.897Z,75.52
2018-10-05T04:53:07.888Z,75.71
2018-10-05T04:55:35.513Z,75.44
2018-10-05T04:58:03.098Z,75.54
2018-10-05T05:00:31.037Z,75.80
2018-10-05T05:02:58.585Z,75.30
2018-10-05T05:05:27.226Z,75.85
2018-10-05T05:07:55.267Z,75.87
2018-10-05T05:10:22.872Z,75.58
2018-10-05T05:12:50.439Z,75.80
2018-10-05T05:15:18.421Z,75.80
2018-10-05T05:17:46.935Z,76.00
2018-10-05T05:20:14.570Z,75.85
2018-10-05T05:22:42.742Z,75.51
2018-10-05T05:25:10.286Z,76.12
2018-10-05T05:27:37.871Z,75.43
2018-10-05T05:30:05.901Z,75.19
2018-10-05T05:32:33.494Z,75.34
2018-10-05T05:35:02.371Z,75.14
2018-10-05T05:37:31.091Z,75.75
2018-10-05T05:39:59.311Z,75.04
2018-10-05T05:42:28.870Z,75.40
2018-10-05T05:44:58.686Z,75.47
2018-10-05T05:47:26.262Z,75.92
2018-10-05T05:49:53.910Z,75.12
2018-10-05T05:52:21.769Z,75.55
2018-10-05T05:54:49.348Z,75.42
2018-10-05T05:57:16.927Z,76.24
2018-10-05T05:59:44.975Z,75.31
2018-10-05T06:02:13.155Z,75.81
2018-10-05T06:04:40.878Z,75.30
2018-10-05T06:07:08.869Z,75.88
2018-10-05T06:09:36.466Z,75.34
2018-10-05T06:12:04.782Z,75.22
2018-10-05T06:14:33.773Z,75.03
2018-10-05T06:17:01.355Z,75.00
2018-10-05T06:19:30.650Z,75.25
2018-10-05T06:21:58.675Z,75.16
2018-10-05T06:24:26.263Z,74.18
2018-10-05T06:26:55.108Z,74.36
2018-10-05T06:29:23.090Z,74.84
2018-10-05T06:31:50.649Z,73.93
2018-10-05T06:34:18.234Z,73.87
2018-10-05T06:36:46.225Z,73.66
2018-10-05T06:39:13.835Z,73.63
2018-10-05T06:41:41.402Z,73.00
2018-10-05T06:44:09.563Z,73.36
2018-10-05T06:46:37.727Z,73.42
2018-10-05T06:49:06.144Z,73.29
2018-10-05T06:51:34.009Z,73.17
2018-10-05T06:54:01.576Z,73.15
2018-10-05T06:56:29.159Z,72.97
2018-10-05T06:58:57.043Z,72.81
2018-10-05T07:01:24.795Z,72.49
2018-10-05T07:03:52.403Z,72.55
2018-10-05T07:06:20.494Z,71.91
2018-10-05T07:08:48.084Z,72.05
2018-10-05T07:11:15.758Z,71.59
2018-10-05T07:13:43.633Z,71.86
2018-10-05T07:16:12.418Z,71.75
2018-10-05T07:18:39.973Z,70.77
2018-10-05T07:21:07.524Z,70.47
2018-10-05T07:23:35.091Z,70.59
2018-10-05T07:26:03.260Z,70.10
2018-10-05T07:28:30.953Z,69.96
2018-10-05T07:31:00.610Z,69.82
2018-10-05T07:33:28.650Z,69.68
2018-10-05T07:35:56.627Z,69.00
2018-10-05T07:38:24.221Z,68.45
2018-10-05T07:40:52.182Z,68.41
2018-10-05T07:43:19.749Z,68.62
2018-10-05T07:45:47.318Z,67.75
2018-10-05T07:48:16.137Z,67.77
2018-10-05T07:50:43.822Z,67.49
2018-10-05T07:53:11.420Z,67.05
2018-10-05T07:55:39.383Z,66.45
2018-10-05T07:58:06.963Z,66.64
2018-10-05T08:00:34.532Z,66.08
2018-10-05T08:03:04.225Z,66.60
2018-10-05T08:05:31.822Z,66.20
2018-10-05T08:08:00.232Z,65.85
2018-10-05T08:10:28.263Z,65.64
2018-10-05T08:12:55.836Z,65.47
2018-10-05T08:15:23.455Z,65.00
2018-10-05T08:17:51.455Z,64.66
2018-10-05T08:20:19.025Z,64.54
2018-10-05T08:22:47.636Z,63.71
2018-10-05T08:25:15.621Z,63.35
2018-10-05T08:27:43.293Z,63.44
2018-10-05T08:30:12.361Z,62.15
2018-10-05T08:32:40.893Z,61.33
2018-10-05T08:35:08.510Z,60.94
2018-10-05T08:37:36.776Z,61.41
2018-10-05T08:40:04.775Z,60.62
2018-10-05T08:42:32.438Z,60.66
2018-10-05T08:45:00.059Z,60.88
2018-10-05T08:47:28.112Z,60.37
2018-10-05T08:49:56.257Z,60.80
2018-10-05T08:52:23.921Z,60.81
2018-10-05T08:54:51.876Z,60.66
2018-10-05T08:57:19.494Z,60.85
2018-10-05T08:59:48.579Z,60.09
2018-10-05T09:02:17.103Z,60.49
2018-10-05T09:04:44.670Z,59.83
2018-10-05T09:07:12.275Z,59.55
2018-10-05T09:09:41.233Z,60.11
2018-10-05T09:12:08.777Z,59.28
2018-10-05T09:14:36.598Z,59.37
2018-10-05T09:17:04.530Z,58.67
2018-10-05T09:19:33.851Z,57.88
2018-10-05T09:22:01.471Z,57.56
2018-10-05T09:24:30.206Z,56.68
2018-10-05T09:26:57.770Z,56.51
2018-10-05T09:29:25.334Z,56.46
2018-10-05T09:31:53.333Z,55.70
2018-10-05T09:34:21.959Z,55.01
2018-10-05T09:36:50.102Z,54.33
2018-10-05T09:39:18.770Z,54.41
2018-10-05T09:41:46.359Z,52.43
2018-10-05T09:44:17.667Z,49.97
2018-10-05T09:46:45.674Z,48.80
2018-10-05T09:49:13.494Z,47.67
2018-10-05T09:51:44.198Z,46.21
2018-10-05T09:54:13.066Z,44.22
2018-10-05T09:56:40.666Z,43.45
2018-10-05T09:59:08.301Z,42.64
2018-10-05T10:01:41.358Z,42.26
2018-10-05T10:04:08.926Z,41.77
2018-10-05T10:06:36.506Z,40.54
2018-10-05T10:09:05.858Z,39.94
2018-10-05T10:11:33.442Z,39.33
2018-10-05T10:14:01.350Z,37.79
2018-10-05T10:16:29.258Z,38.13
2018-10-05T10:18:56.825Z,37.20
2018-10-05T10:21:24.414Z,37.97
2018-10-05T10:23:52.461Z,37.80
2018-10-05T10:26:21.466Z,38.23
2018-10-05T10:28:50.662Z,37.67
2018-10-05T10:31:19.529Z,37.17
2018-10-05T10:33:47.337Z,36.04
2018-10-05T10:36:14.944Z,35.01
2018-10-05T10:38:43.239Z,35.21
2018-10-05T10:41:12.034Z,35.04
2018-10-05T10:43:39.693Z,35.39
2018-10-05T10:46:07.671Z,36.89
2018-10-05T10:48:35.229Z,36.10
2018-10-05T10:51:02.850Z,37.51
2018-10-05T10:53:31.613Z,36.54
2018-10-05T10:55:59.266Z,36.24
2018-10-05T10:58:26.895Z,35.94
2018-10-05T11:00:55.407Z,35.08
2018-10-05T11:03:23.067Z,35.29
2018-10-05T11:05:50.605Z,35.44
2018-10-05T11:08:18.593Z,35.93
2018-10-05T11:10:46.193Z,35.19
2018-10-05T11:13:13.804Z,36.21
2018-10-05T11:15:41.776Z,35.94
2018-10-05T11:18:10.554Z,36.31
2018-10-05T11:20:39.105Z,35.55
2018-10-05T11:23:06.999Z,37.09
2018-10-05T11:25:34.565Z,37.01
2018-10-05T11:28:02.303Z,37.73
2018-10-05T11:30:30.173Z,37.60
2018-10-05T11:32:57.847Z,37.53
2018-10-05T11:35:26.234Z,36.61
2018-10-05T11:37:55.196Z,35.62
2018-10-05T11:40:22.862Z,35.29
2018-10-05T11:42:50.498Z,35.32
2018-10-05T11:45:18.669Z,36.20
2018-10-05T11:47:48.586Z,36.08
2018-10-05T11:50:18.446Z,35.50
2018-10-05T11:52:46.682Z,35.17
2018-10-05T11:55:14.291Z,34.47
2018-10-05T11:57:41.892Z,33.29
2018-10-05T12:00:09.978Z,33.29
2018-10-05T12:02:37.785Z,32.03
2018-10-05T12:05:06.290Z,32.01
2018-10-05T12:07:34.981Z,33.94
2018-10-05T12:10:03.085Z,33.78
2018-10-05T12:12:30.686Z,33.08
2018-10-05T12:14:58.558Z,33.79
2018-10-05T12:17:26.148Z,34.67
2018-10-05T12:19:53.815Z,34.46
2018-10-05T12:22:21.486Z,35.39
2018-10-05T12:24:49.062Z,35.82
2018-10-05T12:27:17.049Z,36.02
2018-10-05T12:29:46.117Z,35.36
2018-10-05T12:32:13.720Z,36.54
2018-10-05T12:34:41.670Z,36.41
2018-10-05T12:37:09.255Z,37.63
2018-10-05T12:39:37.603Z,38.05
2018-10-05T12:42:05.591Z,39.18
2018-10-05T12:44:33.136Z,39.64
2018-10-05T12:47:03.683Z,40.56
2018-10-05T12:49:31.535Z,41.32
2018-10-05T12:52:00.827Z,41.18
2018-10-05T12:54:28.501Z,42.09
2018-10-05T12:57:00.888Z,41.99
2018-10-05T12:59:29.739Z,42.50
2018-10-05T13:01:57.386Z,42.28
2018-10-05T13:04:25.324Z,42.51
2018-10-05T13:06:57.638Z,42.15
2018-10-05T13:09:26.062Z,42.56
2018-10-05T13:11:54.002Z,42.98
2018-10-05T13:14:21.566Z,42.50
2018-10-05T13:16:51.285Z,43.17
2018-10-05T13:19:19.254Z,43.03
2018-10-05T13:21:46.910Z,42.90
2018-10-05T13:24:14.490Z,43.28
2018-10-05T13:26:42.498Z,42.71
2018-10-05T13:29:10.091Z,42.61
2018-10-05T13:31:37.661Z,42.61
2018-10-05T13:34:06.732Z,43.04
2018-10-05T13:36:34.365Z,43.16
2018-10-05T13:39:02.783Z,42.61
2018-10-05T13:41:30.682Z,42.38
2018-10-05T13:43:58.521Z,42.19
2018-10-05T13:46:26.231Z,42.66
2018-10-05T13:48:56.224Z,42.24
2018-10-05T13:51:27.329Z,41.93
2018-10-05T13:53:58.656Z,42.18
2018-10-05T13:56:28.470Z,42.07
2018-10-05T13:58:56.734Z,41.09
2018-10-05T14:01:25.883Z,41.53
2018-10-05T14:03:53.756Z,40.91
2018-10-05T14:06:21.337Z,40.83
2018-10-05T14:08:48.930Z,41.44
2018-10-05T14:11:18.615Z,41.65
2018-10-05T14:13:46.235Z,40.92
2018-10-05T14:16:14.833Z,40.52
2018-10-05T14:18:44.245Z,40.48
2018-10-05T14:21:11.851Z,40.21
2018-10-05T14:23:39.461Z,40.37
2018-10-05T14:26:07.478Z,40.09
2018-10-05T14:28:35.113Z,40.71
2018-10-05T14:31:03.478Z,40.06
2018-10-05T14:33:31.404Z,39.71
2018-10-05T14:35:59.797Z,40.71
2018-10-05T14:38:28.422Z,40.32
2018-10-05T14:40:57.424Z,40.42
2018-10-05T14:43:25.812Z,39.76
2018-10-05T14:45:53.769Z,40.33
2018-10-05T14:48:21.681Z,39.99
2018-10-05T14:50:49.829Z,40.11
2018-10-05T14:53:17.433Z,40.54
2018-10-05T14:55:45.499Z,39.96
2018-10-05T14:58:13.108Z,40.38
2018-10-05T15:00:40.705Z,40.52
2018-10-05T15:03:08.738Z,39.47
2018-10-05T15:05:36.323Z,40.40
2018-10-05T15:08:03.914Z,39.78
2018-10-05T15:10:32.873Z,39.80
2018-10-05T15:13:01.021Z,39.87
2018-10-05T15:15:28.683Z,39.49
2018-10-05T15:18:01.381Z,39.44
2018-10-05T15:20:28.959Z,39.90
2018-10-05T15:22:57.672Z,39.94
2018-10-05T15:25:26.981Z,39.70
2018-10-05T15:27:54.566Z,38.75
2018-10-05T15:30:23.350Z,38.47
2018-10-05T15:32:52.365Z,37.60
2018-10-05T15:35:20.003Z,37.34
2018-10-05T15:37:47.675Z,37.48
2018-10-05T15:40:15.749Z,37.87
2018-10-05T15:42:43.509Z,39.70
2018-10-05T15:45:11.470Z,39.97
2018-10-05T15:47:39.541Z,40.91
2018-10-05T15:50:07.140Z,41.88
2018-10-05T15:52:35.711Z,42.09
2018-10-05T15:55:05.640Z,42.79
2018-10-05T15:57:33.280Z,43.46
2018-10-05T16:00:02.067Z,43.61
2018-10-05T16:02:30.784Z,44.19
2018-10-05T16:05:06.357Z,43.57
2018-10-05T16:07:34.969Z,44.59
2018-10-05T16:10:02.980Z,44.31
2018-10-05T16:12:31.240Z,44.41
2018-10-05T16:14:59.583Z,44.89
2018-10-05T16:17:30.017Z,44.90
2018-10-05T16:19:57.764Z,45.04
2018-10-05T16:22:25.470Z,45.76
2018-10-05T16:24:55.094Z,45.43
2018-10-05T16:27:22.691Z,45.64
2018-10-05T16:29:50.249Z,46.24
2018-10-05T16:32:19.921Z,46.63
2018-10-05T16:34:47.528Z,46.76
2018-10-05T16:37:15.121Z,46.13
2018-10-05T16:39:43.789Z,46.30
2018-10-05T16:42:11.746Z,47.19
2018-10-05T16:44:39.336Z,47.22
2018-10-05T16:47:08.300Z,47.51
2018-10-05T16:49:35.891Z,47.55
2018-10-05T16:52:03.486Z,47.38
2018-10-05T16:54:31.386Z,47.35
2018-10-05T16:57:00.919Z,48.34
2018-10-05T16:59:28.509Z,48.38
2018-10-05T17:01:56.540Z,48.26
2018-10-05T17:04:24.333Z,48.28
2018-10-05T17:06:51.917Z,48.60
2018-10-05T17:09:19.775Z,48.71
2018-10-05T17:11:47.514Z,48.67
2018-10-05T17:14:15.773Z,48.94
2018-10-05T17:16:44.397Z,49.12
2018-10-05T17:19:13.998Z,49.87
2018-10-05T17:21:41.593Z,49.53
2018-10-05T17:24:09.650Z,50.03
2018-10-05T17:26:37.230Z,49.39
2018-10-05T17:29:05.478Z,50.24
2018-10-05T17:31:33.426Z,50.34
2018-10-05T17:34:01.703Z,50.21
2018-10-05T17:36:29.498Z,49.92
2018-10-05T17:38:58.790Z,49.94
2018-10-05T17:41:26.575Z,50.30
2018-10-05T17:43:54.170Z,50.56
2018-10-05T17:46:22.090Z,50.62
2018-10-05T17:48:50.681Z,49.74
2018-10-05T17:51:21.514Z,50.25
2018-10-05T17:53:49.927Z,49.87
2018-10-05T17:56:17.470Z,49.91
2018-10-05T17:58:46.213Z,50.17
2018-10-05T18:01:13.803Z,50.88
2018-10-05T18:03:41.685Z,50.10
2018-10-05T18:06:13.785Z,50.87
2018-10-05T18:08:43.378Z,50.99
2018-10-05T18:11:12.449Z,51.20
2018-10-05T18:13:40.500Z,50.91
2018-10-05T18:16:09.440Z,50.70
2018-10-05T18:18:37.866Z,50.75
2018-10-05T18:21:05.950Z,51.29
2018-10-05T18:23:34.050Z,50.83
2018-10-05T18:26:01.702Z,51.20
2018-10-05T18:28:29.803Z,52.29
2018-10-05T18:30:57.452Z,52.39
2018-10-05T18:33:29.022Z,51.75
2018-10-05T18:35:57.733Z,52.22
2018-10-05T18:38:31.433Z,52.81
2018-10-05T18:41:00.630Z,52.86
2018-10-05T18:43:29.480Z,52.89
2018-10-05T18:45:57.070Z,53.24
2018-10-05T18:48:25.361Z,52.58
2018-10-05T18:50:53.475Z,53.04
2018-10-05T18:53:21.812Z,52.50
2018-10-05T18:55:50.261Z,52.23
2018-10-05T18:58:21.855Z,52.42
2018-10-05T19:00:50.670Z,51.54
2018-10-05T19:03:18.262Z,51.29
2018-10-05T19:05:47.200Z,51.11
2018-10-05T19:08:15.660Z,50.91
2018-10-05T19:10:44.358Z,51.38
2018-10-05T19:13:12.201Z,51.22
2018-10-05T19:15:44.341Z,51.38
2018-10-05T19:18:12.595Z,51.03
2018-10-05T19:20:42.396Z,50.62
2018-10-05T19:23:09.970Z,50.91
2018-10-05T19:25:37.799Z,50.28
2018-10-05T19:28:07.362Z,50.50
2018-10-05T19:30:34.955Z,50.79
2018-10-05T19:33:04.061Z,51.03
2018-10-05T19:35:32.033Z,50.98
2018-10-05T19:38:05.420Z,51.18
2018-10-05T19:40:32.967Z,51.83
2018-10-05T19:43:01.000Z,51.27
2018-10-05T19:45:28.551Z,51.47
2018-10-05T19:47:56.940Z,52.21
2018-10-05T19:50:29.621Z,52.14
2018-10-05T19:52:57.202Z,52.16
2018-10-05T19:55:25.743Z,52.88
2018-10-05T19:57:54.546Z,52.54
2018-10-05T20:00:25.838Z,52.65
2018-10-05T20:02:55.713Z,53.60
2018-10-05T20:05:25.327Z,52.87
2018-10-05T20:07:54.529Z,53.28
2018-10-05T20:10:23.898Z,53.43
2018-10-05T20:12:55.537Z,53.80
2018-10-05T20:15:24.150Z,53.92
2018-10-05T20:17:52.442Z,54.16
2018-10-05T20:20:20.697Z,54.29
2018-10-05T20:22:49.547Z,54.16
2018-10-05T20:25:25.886Z,54.01
2018-10-05T20:27:53.925Z,53.52
2018-10-05T20:30:21.514Z,54.18
2018-10-05T20:32:49.185Z,53.78
2018-10-05T20:35:20.118Z,53.66
2018-10-05T20:37:48.156Z,53.98
2018-10-05T20:40:15.565Z,54.08
2018-10-05T20:42:43.584Z,53.45
2018-10-05T20:45:11.197Z,53.41
2018-10-05T20:47:40.336Z,53.65
2018-10-05T20:50:09.642Z,54.09
2018-10-05T20:52:37.190Z,53.95
2018-10-05T20:55:05.352Z,53.39
2018-10-05T20:57:33.365Z,54.28
2018-10-05T21:00:01.033Z,54.02
2018-10-05T21:02:28.576Z,53.37
2018-10-05T21:04:57.518Z,53.61
2018-10-05T21:07:25.807Z,53.85
2018-10-05T21:09:53.730Z,53.81
2018-10-05T21:12:22.183Z,53.94
2018-10-05T21:14:49.810Z,54.66
2018-10-05T21:17:17.415Z,54.38
2018-10-05T21:19:46.230Z,54.65
2018-10-05T21:22:14.484Z,54.18
2018-10-05T21:24:42.085Z,54.89
2018-10-05T21:27:11.218Z,54.73
2018-10-05T21:29:38.798Z,54.94
2018-10-05T21:32:06.637Z,54.48
2018-10-05T21:34:36.847Z,54.68
2018-10-05T21:37:04.431Z,54.83
2018-10-05T21:39:31.997Z,55.28
2018-10-05T21:41:59.945Z,55.11
2018-10-05T21:44:27.601Z,55.52
2018-10-05T21:46:56.415Z,55.23
2018-10-05T21:49:24.795Z,55.69
2018-10-05T21:51:57.941Z,55.37
2018-10-05T21:54:25.551Z,55.32
2018-10-05T21:56:53.474Z,56.14
2018-10-05T21:59:21.086Z,55.87
2018-10-05T22:01:49.747Z,55.68
2018-10-05T22:04:18.659Z,56.07
2018-10-05T22:06:46.245Z,55.88
2018-10-05T22:09:14.433Z,55.87
2018-10-05T22:11:42.646Z,56.76
2018-10-05T22:14:10.192Z,56.25
2018-10-05T22:16:37.772Z,56.32
2018-10-05T22:19:05.695Z,56.71
2018-10-05T22:21:33.243Z,56.35
2018-10-05T22:24:00.821Z,56.71
2018-10-05T22:26:30.070Z,56.68
2018-10-05T22:28:57.708Z,57.07
2018-10-05T22:31:25.298Z,56.78
2018-10-05T22:33:53.546Z,57.24
2018-10-05T22:36:21.201Z,57.28
2018-10-05T22:38:49.809Z,57.12
2018-10-05T22:41:17.705Z,57.06
2018-10-05T22:43:46.410Z,56.91
2018-10-05T22:46:15.390Z,56.80
2018-10-05T22:48:43.357Z,56.80
2018-10-05T22:51:12.438Z,57.30
2018-10-05T22:53:41.574Z,56.99
2018-10-05T22:56:09.683Z,57.44
2018-10-05T22:58:37.327Z,56.90
2018-10-05T23:01:05.014Z,57.72
2018-10-05T23:03:33.148Z,57.85
2018-10-05T23:06:00.790Z,58.07
2018-10-05T23:08:28.934Z,57.16
2018-10-05T23:10:58.514Z,57.69
2018-10-05T23:13:26.156Z,57.86
2018-10-05T23:15:53.830Z,57.56
2018-10-05T23:18:22.685Z,58.03
2018-10-05T23:20:50.249Z,57.46
2018-10-05T23:23:17.882Z,57.99
2018-10-05T23:25:45.862Z,58.19
2018-10-05T23:28:14.332Z,58.01
2018-10-05T23:30:41.924Z,57.62
2018-10-05T23:33:09.562Z,58.24
2018-10-05T23:35:37.563Z,57.45
2018-10-05T23:38:05.169Z,57.63
2018-10-05T23:40:32.754Z,57.78
2018-10-05T23:43:00.712Z,58.40
2018-10-05T23:45:28.298Z,58.12
2018-10-05T23:47:55.914Z,58.21
2018-10-05T23:50:23.550Z,58.80
2018-10-05T23:52:53.385Z,58.45
2018-10-05T23:55:23.530Z,58.72
2018-10-05T23:57:51.091Z,59.05
